Flight Track Log - Related Links

Times and Time Zones

All times are in EDT time to prevent confusion due to time zone crossing. See the RAX500 flight status page for this flight to view local times or setup timezone preferences in your user account.

Time Position Orientation Groundspeed Altitude Reporting Facility
EDT Latitude Longitude Course Direction KTS MPH feet Rate Location/Type
Fri 06:59:50 PM 43.1150 -76.0300 286° West 197 227 2,800  Level Boston Center
Fri 07:00:45 PM 43.1444 -76.0858 306° West 264 304 6,100 2,494 Climbing Boston Center
Fri 07:02:48 PM 43.1831 -76.2947 284° West 286 329 10,200 2,525 Climbing Cleveland Center
Fri 07:03:48 PM 43.2000 -76.4161 281° West 305 351 13,800 3,300 Climbing Cleveland Center
Fri 07:04:48 PM 43.2153 -76.5492 279° West 340 391 16,800 2,650 Climbing Cleveland Center
Fri 07:05:00 PM 43.2588 -76.8130 286° West  Level FlightAware Approximate
Fri 07:05:48 PM 43.2325 -76.6847 280° West 356 410 19,100  Level Cleveland Center
Fri 07:06:48 PM 43.2203 -76.8225 263° West 367 422 22,000 2,500 Climbing Cleveland Center
Fri 07:07:48 PM 43.2019 -76.9658 260° West 372 428 24,100 2,150 Climbing Cleveland Center
Fri 07:08:48 PM 43.1878 -77.1150 263° West 383 441 26,300 2,200 Climbing Cleveland Center
Fri 07:09:48 PM 43.1858 -77.2631 269° West 393 452 28,500 2,150 Climbing Cleveland Center
Fri 07:10:48 PM 43.1839 -77.4169 269° West 398 458 30,600 1,750 Climbing Cleveland Center
Fri 07:11:48 PM 43.1819 -77.5736 269° West 404 465 32,000 700 Climbing Cleveland Center
Fri 07:12:48 PM 43.1858 -77.7358 272° West 414 476 32,000  Level Cleveland Center
Fri 07:13:48 PM 43.1900 -77.9067 272° West 435 501 32,000  Level Cleveland Center
Fri 07:14:48 PM 43.1958 -78.0800 273° West 447 514 32,000  Level Cleveland Center
Fri 07:15:48 PM 43.2036 -78.2478 274° West 452 520 32,000  Level Cleveland Center
Fri 07:16:48 PM 43.1922 -78.4106 265° West 452 520 32,000  Level Cleveland Center
Fri 07:17:48 PM 43.1722 -78.5764 261° West 447 514 32,000  Level Cleveland Center
Fri 07:18:48 PM 43.1603 -78.7419 264° West 442 509 32,000 -50 Level Cleveland Center
Fri 07:19:48 PM 43.1672 -78.9067 273° West 442 509 31,900  Descending Cleveland Center
Fri 07:20:24 PM 43.1500 -79.0000 256° West 440 506 32,000  Climbing Toronto Center
Fri 07:21:24 PM 43.1167 -79.1500 253° West 440 506 31,900 -650 Descending Toronto Center
Fri 07:22:24 PM 43.1333 -79.3167 278° West 450 518 30,700 -1,100 Descending Toronto Center
Fri 07:23:24 PM 43.1333 -79.5000 270° West 450 518 29,700 -850 Descending Toronto Center
Fri 07:24:24 PM 43.1167 -79.6500 261° West 440 506 29,000 -800 Descending Toronto Center
Fri 07:25:24 PM 43.1167 -79.8333 270° West 440 506 28,100 -850 Descending Toronto Center
Fri 07:26:24 PM 43.1000 -80.0000 262° West 440 506 27,300 -850 Descending Toronto Center
Fri 07:27:24 PM 43.0833 -80.1500 261° West 440 506 26,400 -900 Descending Toronto Center
Fri 07:28:24 PM 43.0833 -80.3167 270° West 440 506 25,500 -800 Descending Toronto Center
Fri 07:29:24 PM 43.0667 -80.4833 262° West 440 506 24,800 -600 Descending Toronto Center
Fri 07:30:24 PM 43.0500 -80.6667 263° West 430 495 24,300 -350 Descending Toronto Center
Fri 07:31:24 PM 43.0167 -80.8000 251° West 430 495 24,100 -150 Descending Toronto Center
Fri 07:32:24 PM 42.9833 -80.9500 253° West 430 495 24,000 -50 Descending Toronto Center
Fri 07:33:24 PM 42.9500 -81.1167 255° West 420 483 24,000 -700 Level Toronto Center
Fri 07:34:24 PM 42.9333 -81.2667 261° West 410 472 22,600 -2,200 Descending Toronto Center
Fri 07:35:24 PM 42.9167 -81.4167 261° West 400 460 19,600 -2,950 Descending Toronto Center
Fri 07:36:24 PM 42.9000 -81.5667 261° West 390 449 16,700 -2,850 Descending Toronto Center
Fri 07:37:24 PM 42.8833 -81.6833 259° West 360 414 13,900 -2,700 Descending Toronto Center
Fri 07:38:24 PM 42.8667 -81.8167 260° West 350 403 11,300 -1,813 Descending Toronto Center
Fri 07:39:00 PM 42.8589 -81.9058 263° West 353 406 11,000 -188 Descending Cleveland Center
Fri 07:40:00 PM 42.8411 -82.0103 257° West 325 374 11,000 -400 Level Cleveland Center
Fri 07:41:00 PM 42.8189 -82.1117 253° West 292 336 10,200 -500 Descending Cleveland Center
Fri 07:42:00 PM 42.7906 -82.2100 249° West 282 325 10,000 -450 Descending Cleveland Center
Fri 07:43:00 PM 42.7786 -82.3172 261° West 282 325 9,300 -800 Descending Cleveland Center
Fri 07:44:00 PM 42.7789 -82.4219 270° West 282 325 8,400 -1,076 Descending Cleveland Center
Fri 07:45:25 PM 42.7722 -82.5772 267° West 287 330 6,700 -1,200 Descending Cleveland Center
Fri 07:46:00 PM 42.7669 -82.6364 263° West 283 326 6,000 -565 Descending Cleveland Center
Fri 07:46:50 PM 42.7592 -82.7294 264° West 281 323 5,900 -103 Descending Cleveland Center
Fri 07:47:57 PM 42.7528 -82.8397 266° West 268 308 5,800 -469 Descending Cleveland Center
Fri 07:48:58 PM 42.7425 -82.9439 262° West 290 334 4,900 -761 Descending Cleveland Center
Fri 07:50:11 PM 42.7458 -83.0825 272° West 294 338 4,100 -466 Descending Cleveland Center
Fri 07:50:54 PM 42.7419 -83.1531 266° West 285 328 4,000 -98 Descending Cleveland Center
Fri 07:52:13 PM 42.7389 -83.2942 268° West 269 310 3,900 -343 Descending Cleveland Center
Fri 07:53:14 PM 42.7178 -83.3894 253° West 252 290 3,200 -716 Descending Cleveland Center
Fri 07:54:02 PM 42.7039 -83.4511 253° West 197 227 2,600 -936 Descending Cleveland Center
Fri 07:55:03 PM 42.6661 -83.4606 190° South 138 159 1,500 -1,082 Descending Cleveland Center
Fri 07:57:00 PM 42.6500 -83.4167 154° Southeast  Level FlightAware Approximate
Fri 08:04:00 PM 42.6656 -83.4205 154° Southeast  Level Estimated

Login

Don't have an account? Register now (free) for customized features, flight alerts, and more!